createdAt,value
2023-05-21T00:00:48.602Z,88.8
2023-05-21T00:02:04.914Z,89
2023-05-21T00:03:21.201Z,89
2023-05-21T00:04:37.496Z,89
2023-05-21T00:05:53.779Z,89.1
2023-05-21T00:07:10.092Z,89.1
2023-05-21T00:08:25.383Z,89.1
2023-05-21T00:09:41.685Z,89.2
2023-05-21T00:10:57.989Z,89.1
2023-05-21T00:12:14.285Z,89.2
2023-05-21T00:13:30.571Z,89.4
2023-05-21T00:14:46.857Z,89.4
2023-05-21T00:16:03.164Z,89.5
2023-05-21T00:17:19.458Z,89.5
2023-05-21T00:18:35.745Z,89.4
2023-05-21T00:19:52.037Z,89.5
2023-05-21T00:21:08.323Z,89.5
2023-05-21T00:22:24.621Z,89.7
2023-05-21T00:23:40.929Z,89.7
2023-05-21T00:24:56.228Z,89.8
2023-05-21T00:26:12.527Z,89.8
2023-05-21T00:27:28.818Z,89.9
2023-05-21T00:28:45.108Z,89.9
2023-05-21T00:30:01.402Z,90.1
2023-05-21T00:31:17.704Z,90.1
2023-05-21T00:32:33.947Z,90.5
2023-05-21T00:33:50.205Z,90.4
2023-05-21T00:35:06.482Z,90.6
2023-05-21T00:36:22.784Z,90.6
2023-05-21T00:37:39.073Z,90.6
2023-05-21T00:38:55.378Z,90.8
2023-05-21T00:40:11.677Z,90.8
2023-05-21T00:41:26.973Z,90.9
2023-05-21T00:42:43.266Z,91
2023-05-21T00:43:59.571Z,90.9
2023-05-21T00:45:15.872Z,91
2023-05-21T00:46:32.153Z,91
2023-05-21T00:47:48.442Z,91.1
2023-05-21T00:49:04.745Z,91.2
2023-05-21T00:50:21.041Z,91.3
2023-05-21T00:51:37.328Z,91.2
2023-05-21T00:52:53.622Z,91.3
2023-05-21T00:54:09.926Z,91.5
2023-05-21T00:55:26.218Z,91.5
2023-05-21T00:56:42.518Z,91.7
2023-05-21T00:57:57.818Z,91.8
2023-05-21T00:59:14.119Z,91.8
2023-05-21T01:00:30.403Z,91.8
2023-05-21T01:01:46.709Z,91.8
2023-05-21T01:03:02.998Z,92
2023-05-21T01:04:19.297Z,91.8
2023-05-21T01:05:35.593Z,91.8
2023-05-21T01:06:51.884Z,92
2023-05-21T01:08:08.181Z,92.2
2023-05-21T01:09:24.473Z,92.2
2023-05-21T01:10:40.774Z,92.2
2023-05-21T01:11:57.058Z,92.2
2023-05-21T01:13:13.344Z,92.3
2023-05-21T01:14:28.670Z,92.5
2023-05-21T01:15:44.959Z,92.5
2023-05-21T01:17:01.257Z,92.5
2023-05-21T01:18:17.544Z,92.9
2023-05-21T01:19:33.850Z,92.9
2023-05-21T01:20:50.140Z,93
2023-05-21T01:22:06.433Z,93
2023-05-21T01:23:22.717Z,93.1
2023-05-21T01:24:39.013Z,93
2023-05-21T01:25:55.310Z,93
2023-05-21T01:27:11.601Z,93.2
2023-05-21T01:28:27.908Z,93.3
2023-05-21T01:29:44.194Z,93.3
2023-05-21T01:30:59.503Z,93.3
2023-05-21T01:32:15.808Z,93.2
2023-05-21T01:33:32.085Z,93
2023-05-21T01:34:48.388Z,93.1
2023-05-21T01:36:04.687Z,92.9
2023-05-21T01:37:20.969Z,93.1
2023-05-21T01:38:37.271Z,93.4
2023-05-21T01:39:53.564Z,93.4
2023-05-21T01:41:09.854Z,93.3
2023-05-21T01:42:26.151Z,93.5
2023-05-21T01:43:42.456Z,93.6
2023-05-21T01:44:58.744Z,93.6
2023-05-21T01:46:15.044Z,93.4
2023-05-21T01:47:30.340Z,93.2
2023-05-21T01:48:46.639Z,93.4
2023-05-21T01:50:02.936Z,93.5
2023-05-21T01:51:19.238Z,93.7
2023-05-21T01:52:35.533Z,93.6
2023-05-21T01:53:51.827Z,93.6
2023-05-21T01:55:08.117Z,93.7
2023-05-21T01:56:24.407Z,93.9
2023-05-21T01:57:40.695Z,93.8
2023-05-21T01:58:56.995Z,94
2023-05-21T02:00:13.283Z,93.7
2023-05-21T02:01:29.596Z,93.7
2023-05-21T02:02:45.872Z,93.9
2023-05-21T02:04:01.190Z,93.8
2023-05-21T02:05:17.481Z,93.8
2023-05-21T02:06:33.770Z,94.2
2023-05-21T02:07:50.072Z,94.4
2023-05-21T02:09:06.360Z,94.4
2023-05-21T02:10:22.672Z,94.4
2023-05-21T02:11:37.969Z,94.2
2023-05-21T02:12:54.265Z,94.5
2023-05-21T02:14:10.559Z,94.6
2023-05-21T02:15:26.868Z,94.4
2023-05-21T02:16:43.154Z,94.3
2023-05-21T02:17:59.450Z,94.6
2023-05-21T02:19:15.743Z,94.6
2023-05-21T02:20:32.040Z,94.5
2023-05-21T02:21:48.334Z,94.8
2023-05-21T02:23:04.615Z,94.7
2023-05-21T02:24:20.927Z,94.6
2023-05-21T02:25:37.217Z,94.8
2023-05-21T02:26:53.500Z,95
2023-05-21T02:28:08.821Z,95.1
2023-05-21T02:29:25.116Z,95.1
2023-05-21T02:30:41.415Z,95.2
2023-05-21T02:31:57.697Z,95.2
2023-05-21T02:33:13.993Z,95.3
2023-05-21T02:34:30.285Z,95.4
2023-05-21T02:35:46.585Z,95.4
2023-05-21T02:37:02.873Z,95.5
2023-05-21T02:38:19.175Z,95.6
2023-05-21T02:39:35.462Z,95.5
2023-05-21T02:40:51.758Z,95.8
2023-05-21T02:42:08.048Z,95.6
2023-05-21T02:43:24.301Z,95.8
2023-05-21T02:44:39.599Z,95.8
2023-05-21T02:45:55.895Z,95.8
2023-05-21T02:47:12.204Z,95.6
2023-05-21T02:48:28.445Z,95.5
2023-05-21T02:49:44.753Z,95.5
2023-05-21T02:51:01.041Z,95.6
2023-05-21T02:52:17.323Z,95.8
2023-05-21T02:53:33.628Z,95.8
2023-05-21T02:54:49.929Z,96
2023-05-21T02:56:06.211Z,96
2023-05-21T02:57:22.500Z,95.8
2023-05-21T02:58:38.811Z,95.8
2023-05-21T02:59:55.054Z,95.8
2023-05-21T03:01:10.313Z,95.8
2023-05-21T03:02:26.558Z,95.6
2023-05-21T03:03:42.787Z,95.8
2023-05-21T03:04:59.027Z,95.5
2023-05-21T03:06:15.277Z,95.7
2023-05-21T03:07:31.529Z,95.4
2023-05-21T03:08:47.760Z,95.7
2023-05-21T03:10:04.017Z,95.9
2023-05-21T03:11:20.236Z,95.9
2023-05-21T03:12:36.491Z,96
2023-05-21T03:13:52.726Z,95.9
2023-05-21T03:15:08.962Z,95.7
2023-05-21T03:16:25.212Z,95.8
2023-05-21T03:17:40.455Z,95.9
2023-05-21T03:18:56.701Z,95.8
2023-05-21T03:20:12.947Z,95.8
2023-05-21T03:21:29.193Z,95.4
2023-05-21T03:22:45.434Z,95.5
2023-05-21T03:24:01.674Z,95.8
2023-05-21T03:25:17.906Z,95.6
2023-05-21T03:26:34.143Z,95.6
2023-05-21T03:27:50.393Z,96.1
2023-05-21T03:29:06.619Z,96
2023-05-21T03:30:22.868Z,96
2023-05-21T03:31:39.115Z,96
2023-05-21T03:32:55.344Z,95.8
2023-05-21T03:34:10.612Z,96
2023-05-21T03:35:26.845Z,96.3
2023-05-21T03:36:43.089Z,96.2
2023-05-21T03:37:59.324Z,96.2
2023-05-21T03:39:15.570Z,96.2
2023-05-21T03:40:31.802Z,96.4
2023-05-21T03:41:48.053Z,96.2
2023-05-21T03:43:04.287Z,96.4
2023-05-21T03:44:20.517Z,96.6
2023-05-21T03:45:36.769Z,96.7
2023-05-21T03:46:53.006Z,96.7
2023-05-21T03:48:09.240Z,96.8
2023-05-21T03:49:25.496Z,96.8
2023-05-21T03:51:56.977Z,96.6
2023-05-21T03:53:13.232Z,96.7
2023-05-21T03:54:29.463Z,96.9
2023-05-21T03:55:45.714Z,97
2023-05-21T03:57:01.953Z,96.9
2023-05-21T03:58:18.184Z,96.9
2023-05-21T03:59:34.421Z,96.8
2023-05-21T04:00:50.675Z,96.8
2023-05-21T04:02:06.917Z,96.8
2023-05-21T04:03:23.151Z,96.8
2023-05-21T04:04:39.379Z,96.8
2023-05-21T04:05:55.639Z,96.8
2023-05-21T04:07:10.893Z,96.7
2023-05-21T04:08:27.132Z,96.8
2023-05-21T04:09:43.357Z,96.8
2023-05-21T04:10:59.614Z,96.7
2023-05-21T04:12:15.839Z,96.7
2023-05-21T04:13:32.084Z,96.6
2023-05-21T04:14:48.337Z,96.6
2023-05-21T04:16:04.559Z,96.5
2023-05-21T04:17:20.816Z,96.4
2023-05-21T04:18:37.049Z,96.4
2023-05-21T04:19:53.294Z,96.4
2023-05-21T04:21:09.523Z,96.3
2023-05-21T04:22:25.761Z,96.2
2023-05-21T04:23:41.018Z,96.2
2023-05-21T04:24:57.262Z,96.2
2023-05-21T04:26:13.503Z,96
2023-05-21T04:27:29.755Z,95.9
2023-05-21T04:28:45.991Z,95.8
2023-05-21T04:30:02.223Z,95.8
2023-05-21T04:31:18.470Z,95.7
2023-05-21T04:32:34.718Z,95.7
2023-05-21T04:33:50.952Z,95.5
2023-05-21T04:35:07.193Z,95.7
2023-05-21T04:36:23.437Z,95.5
2023-05-21T04:37:39.665Z,95.2
2023-05-21T04:38:55.911Z,95.2
2023-05-21T04:40:11.175Z,94.9
2023-05-21T04:41:27.403Z,95
2023-05-21T04:42:43.641Z,94.8
2023-05-21T04:43:59.880Z,94.8
2023-05-21T04:45:16.127Z,94.7
2023-05-21T04:46:32.360Z,94.6
2023-05-21T04:47:48.606Z,94.7
2023-05-21T04:49:04.845Z,94.4
2023-05-21T04:50:21.101Z,94.4
2023-05-21T04:51:37.321Z,94
2023-05-21T04:52:53.574Z,93.8
2023-05-21T04:54:09.820Z,93.9
2023-05-21T04:55:26.042Z,93.8
2023-05-21T04:56:41.311Z,93.8
2023-05-21T04:57:57.541Z,93.8
2023-05-21T04:59:13.791Z,93.6
2023-05-21T05:00:30.019Z,93.4
2023-05-21T05:01:46.279Z,93.5
2023-05-21T05:03:02.517Z,93.3
2023-05-21T05:04:18.741Z,93.3
2023-05-21T05:05:34.996Z,93.3
2023-05-21T05:06:51.231Z,93.4
2023-05-21T05:08:07.481Z,93.3
2023-05-21T05:09:23.703Z,93.5
2023-05-21T05:10:39.961Z,93.5
2023-05-21T05:11:56.186Z,93.4
2023-05-21T05:13:11.452Z,93.1
2023-05-21T05:14:27.697Z,93.1
2023-05-21T05:15:43.937Z,93.2
2023-05-21T05:17:00.171Z,92.8
2023-05-21T05:18:16.415Z,93.2
2023-05-21T05:19:32.657Z,93.1
2023-05-21T05:20:48.895Z,93.2
2023-05-21T05:22:05.134Z,93.2
2023-05-21T05:23:21.371Z,92.7
2023-05-21T05:24:37.603Z,92.6
2023-05-21T05:25:53.852Z,92.4
2023-05-21T05:27:10.098Z,92.6
2023-05-21T05:28:26.342Z,92.5
2023-05-21T05:29:41.585Z,92.7
2023-05-21T05:30:57.838Z,92.3
2023-05-21T05:32:14.066Z,92.7
2023-05-21T05:33:30.316Z,92.7
2023-05-21T05:34:46.540Z,92.4
2023-05-21T05:36:02.792Z,92.2
2023-05-21T05:37:19.042Z,92.1
2023-05-21T05:38:35.278Z,92
2023-05-21T05:39:51.507Z,91.9
2023-05-21T05:41:07.760Z,92.2
2023-05-21T05:42:23.997Z,92.2
2023-05-21T05:43:40.226Z,92.2
2023-05-21T05:44:56.474Z,92.2
2023-05-21T05:46:11.732Z,91.8
2023-05-21T05:47:27.961Z,91.3
2023-05-21T05:48:44.204Z,91.5
2023-05-21T05:50:00.453Z,91.5
2023-05-21T05:51:16.686Z,91.4
2023-05-21T05:52:32.928Z,90.7
2023-05-21T05:53:49.179Z,90.5
2023-05-21T05:55:05.406Z,90.4
2023-05-21T05:56:21.652Z,90.5
2023-05-21T05:57:37.897Z,90.3
2023-05-21T05:58:54.130Z,90.7
2023-05-21T06:00:10.377Z,89.4
2023-05-21T06:01:26.611Z,89.4
2023-05-21T06:02:41.874Z,89.1
2023-05-21T06:03:58.114Z,88.9
2023-05-21T06:05:14.351Z,88.5
2023-05-21T06:06:30.584Z,88.3
2023-05-21T06:07:46.838Z,88.6
2023-05-21T06:09:03.061Z,87.7
2023-05-21T06:10:19.307Z,87.6
2023-05-21T06:11:35.560Z,88.2
2023-05-21T06:12:51.783Z,87.6
2023-05-21T06:14:08.034Z,87.7
2023-05-21T06:15:24.270Z,87.2
2023-05-21T06:16:40.523Z,87.1
2023-05-21T06:17:56.759Z,87
2023-05-21T06:19:12.011Z,86.9
2023-05-21T06:20:28.242Z,86.6
2023-05-21T06:21:44.487Z,86.7
2023-05-21T06:23:00.724Z,86.9
2023-05-21T06:24:16.971Z,86.7
2023-05-21T06:25:33.210Z,86.4
2023-05-21T06:26:48.464Z,85.7
2023-05-21T06:28:04.715Z,86
2023-05-21T06:29:20.951Z,85.9
2023-05-21T06:30:37.188Z,85.4
2023-05-21T06:31:53.436Z,84.8
2023-05-21T06:33:09.676Z,85
2023-05-21T06:34:25.918Z,85
2023-05-21T06:35:42.143Z,85.3
2023-05-21T06:36:58.393Z,84.8
2023-05-21T06:38:14.634Z,85
2023-05-21T06:39:30.879Z,85.6
2023-05-21T06:40:47.107Z,84.6
2023-05-21T06:42:03.358Z,84.3
2023-05-21T06:43:18.609Z,83
2023-05-21T06:44:34.858Z,82.3
2023-05-21T06:45:51.080Z,83.1
2023-05-21T06:47:07.338Z,83.2
2023-05-21T06:48:23.563Z,81.3
2023-05-21T06:49:39.809Z,82.2
2023-05-21T06:50:56.057Z,82.9
2023-05-21T06:52:12.290Z,83.2
2023-05-21T06:53:28.537Z,83.1
2023-05-21T06:54:44.766Z,83.1
2023-05-21T06:56:01.013Z,80.3
2023-05-21T06:57:17.260Z,79.7
2023-05-21T06:58:33.492Z,81.1
2023-05-21T06:59:48.749Z,79.9
2023-05-21T07:01:04.992Z,80.2
2023-05-21T07:02:21.230Z,79.6
2023-05-21T07:03:37.470Z,79.8
2023-05-21T07:04:53.716Z,80.3
2023-05-21T07:06:09.947Z,79.4
2023-05-21T07:07:26.180Z,79.5
2023-05-21T07:08:42.432Z,79.8
2023-05-21T07:09:58.661Z,78.4
2023-05-21T07:11:14.911Z,78.2
2023-05-21T07:12:31.157Z,79
2023-05-21T07:13:47.391Z,79.1
2023-05-21T07:15:03.625Z,80.4
2023-05-21T07:16:18.894Z,80.8
2023-05-21T07:17:35.131Z,79.6
2023-05-21T07:18:51.376Z,80.1
2023-05-21T07:20:07.605Z,79.7
2023-05-21T07:21:23.850Z,79.6
2023-05-21T07:22:40.087Z,79.2
2023-05-21T07:23:56.333Z,79.9
2023-05-21T07:25:12.557Z,79.1
2023-05-21T07:26:28.816Z,77.2
2023-05-21T07:27:45.045Z,77.5
2023-05-21T07:29:01.295Z,78.1
2023-05-21T07:30:17.520Z,78.1
2023-05-21T07:31:33.762Z,76.7
2023-05-21T07:32:49.026Z,78.5
2023-05-21T07:34:05.268Z,78.1
2023-05-21T07:35:21.501Z,77.4
2023-05-21T07:36:37.737Z,77.4
2023-05-21T07:37:53.983Z,77.4
2023-05-21T07:39:10.216Z,77.6
2023-05-21T07:40:26.476Z,78
2023-05-21T07:41:42.708Z,76.1
2023-05-21T07:42:58.949Z,75.7
2023-05-21T07:44:15.184Z,75.7
2023-05-21T07:45:31.424Z,76.3
2023-05-21T07:46:47.667Z,77.9
2023-05-21T07:48:03.899Z,76.8
2023-05-21T07:49:19.162Z,76.9
2023-05-21T07:50:35.404Z,76.4
2023-05-21T07:51:51.651Z,75.3
2023-05-21T07:53:07.882Z,75.7
2023-05-21T07:54:24.118Z,75.3
2023-05-21T07:55:40.365Z,75.9
2023-05-21T07:56:56.598Z,75.5
2023-05-21T07:58:12.844Z,75.7
2023-05-21T07:59:29.093Z,76.5
2023-05-21T08:00:45.315Z,76.6
2023-05-21T08:02:01.562Z,75.1
2023-05-21T08:03:17.808Z,74.5
2023-05-21T08:04:34.048Z,75.4
2023-05-21T08:05:49.290Z,76.2
2023-05-21T08:07:05.543Z,76.4
2023-05-21T08:08:21.779Z,74.9
2023-05-21T08:09:38.014Z,73.4
2023-05-21T08:10:54.261Z,73.5
2023-05-21T08:12:10.499Z,73.6
2023-05-21T08:13:26.747Z,75.4
2023-05-21T08:14:42.975Z,73.1
2023-05-21T08:15:59.222Z,74
2023-05-21T08:17:15.463Z,73.5
2023-05-21T08:18:31.711Z,74.8
2023-05-21T08:19:47.932Z,74.2
2023-05-21T08:21:04.187Z,72.7
2023-05-21T08:22:19.440Z,73.4
2023-05-21T08:23:35.686Z,74
2023-05-21T08:24:51.925Z,74.3
2023-05-21T08:26:08.157Z,73.7
2023-05-21T08:27:24.398Z,73.4
2023-05-21T08:28:40.642Z,74.3
2023-05-21T08:29:56.881Z,74.3
2023-05-21T08:31:13.113Z,73.8
2023-05-21T08:32:29.359Z,72.7
2023-05-21T08:33:45.602Z,74.4
2023-05-21T08:35:01.844Z,73.8
2023-05-21T08:36:18.082Z,72.4
2023-05-21T08:37:34.321Z,73.5
2023-05-21T08:38:49.576Z,71.6
2023-05-21T08:40:05.822Z,72.5
2023-05-21T08:41:22.052Z,71.2
2023-05-21T08:42:38.309Z,72.3
2023-05-21T08:43:54.545Z,71.8
2023-05-21T08:45:10.768Z,73.1
2023-05-21T08:46:27.025Z,69.9
2023-05-21T08:47:43.269Z,71.4
2023-05-21T08:48:59.507Z,71.8
2023-05-21T08:50:15.730Z,71.8
2023-05-21T08:51:31.986Z,70.9
2023-05-21T08:52:48.211Z,71.5
2023-05-21T08:54:04.465Z,70.8
2023-05-21T08:55:19.706Z,69.7
2023-05-21T08:56:35.950Z,67.8
2023-05-21T08:57:52.186Z,68.6
2023-05-21T08:59:08.428Z,71.2
2023-05-21T09:00:24.673Z,70.3
2023-05-21T09:01:40.909Z,70.1
2023-05-21T09:02:57.151Z,68.8
2023-05-21T09:04:13.394Z,69.4
2023-05-21T09:05:29.639Z,69.1
2023-05-21T09:06:45.885Z,65.8
2023-05-21T09:08:02.108Z,67.8
2023-05-21T09:09:18.357Z,66.3
2023-05-21T09:10:34.593Z,67
2023-05-21T09:11:49.866Z,65.9
2023-05-21T09:13:06.092Z,67.7
2023-05-21T09:14:22.335Z,66.2
2023-05-21T09:15:38.568Z,64.4
2023-05-21T09:16:54.815Z,65.7
2023-05-21T09:18:11.044Z,64.9
2023-05-21T09:19:27.297Z,65.4
2023-05-21T09:20:43.533Z,65.6
2023-05-21T09:21:59.779Z,64.5
2023-05-21T09:23:16.011Z,65.4
2023-05-21T09:24:32.247Z,66.1
2023-05-21T09:25:48.495Z,65.5
2023-05-21T09:27:04.731Z,64.8
2023-05-21T09:28:19.999Z,65
2023-05-21T09:29:36.234Z,66.2
2023-05-21T09:30:52.485Z,65.6
2023-05-21T09:32:08.708Z,65.5
2023-05-21T09:33:24.961Z,66.3
2023-05-21T09:34:41.197Z,65.2
2023-05-21T09:35:57.436Z,66.7
2023-05-21T09:37:13.668Z,63.7
2023-05-21T09:38:29.917Z,63.9
2023-05-21T09:39:46.164Z,62.6
2023-05-21T09:41:02.406Z,63.3
2023-05-21T09:42:18.637Z,65.2
2023-05-21T09:43:34.884Z,63
2023-05-21T09:44:50.138Z,63.7
2023-05-21T09:46:06.375Z,63.5
2023-05-21T09:47:22.613Z,64.5
2023-05-21T09:48:38.865Z,64
2023-05-21T09:49:55.088Z,63.8
2023-05-21T09:51:11.340Z,64.5
2023-05-21T09:52:27.581Z,61.4
2023-05-21T09:53:43.818Z,64.1
2023-05-21T09:55:00.057Z,61.4
2023-05-21T09:56:16.303Z,61
2023-05-21T09:57:32.527Z,61.4
2023-05-21T09:58:48.784Z,62
2023-05-21T10:00:05.027Z,61.4
2023-05-21T10:01:20.282Z,61
2023-05-21T10:02:36.507Z,62
2023-05-21T10:03:52.751Z,62.5
2023-05-21T10:05:08.990Z,61.9
2023-05-21T10:06:25.240Z,61.5
2023-05-21T10:07:41.481Z,61.4
2023-05-21T10:08:57.710Z,62.4
2023-05-21T10:10:13.957Z,57
2023-05-21T10:11:30.193Z,57.5
2023-05-21T10:12:46.427Z,60.1
2023-05-21T10:14:02.680Z,59
2023-05-21T10:15:18.918Z,58.2
2023-05-21T10:16:35.144Z,56.4
2023-05-21T10:17:50.399Z,58.6
2023-05-21T10:19:06.659Z,57.6
2023-05-21T10:20:22.888Z,59.1
2023-05-21T10:21:39.136Z,58.8
2023-05-21T10:22:55.367Z,57.8
2023-05-21T10:24:11.602Z,60.5
2023-05-21T10:25:27.852Z,58
2023-05-21T10:26:44.092Z,58.1
2023-05-21T10:28:00.330Z,58.3
2023-05-21T10:29:16.569Z,58.1
2023-05-21T10:30:32.801Z,54.2
2023-05-21T10:31:49.048Z,54.5
2023-05-21T10:33:05.293Z,53.6
2023-05-21T10:34:20.555Z,56.3
2023-05-21T10:35:36.783Z,56.2
2023-05-21T10:36:53.022Z,54.4
2023-05-21T10:38:09.276Z,55.5
2023-05-21T10:39:25.503Z,51
2023-05-21T10:40:41.738Z,50.4
2023-05-21T10:41:57.014Z,53.1
2023-05-21T10:43:13.250Z,50.5
2023-05-21T10:44:29.498Z,49.4
2023-05-21T10:45:45.720Z,50.8
2023-05-21T10:47:01.975Z,51
2023-05-21T10:48:18.218Z,52.8
2023-05-21T10:49:34.449Z,52
2023-05-21T10:50:50.690Z,51.4
2023-05-21T10:52:06.933Z,52.7
2023-05-21T10:53:23.180Z,51.4
2023-05-21T10:54:39.421Z,49.4
2023-05-21T10:55:55.656Z,49.6
2023-05-21T10:57:11.884Z,49.7
2023-05-21T10:58:27.149Z,50.1
2023-05-21T10:59:43.378Z,49.8
2023-05-21T11:00:59.620Z,49.2
2023-05-21T11:02:15.877Z,49.8
2023-05-21T11:03:32.112Z,50.5
2023-05-21T11:04:48.343Z,55.1
2023-05-21T11:06:04.579Z,50.1
2023-05-21T11:07:20.837Z,53.2
2023-05-21T11:08:37.063Z,50.6
2023-05-21T11:09:53.315Z,54.8
2023-05-21T11:11:09.552Z,51.9
2023-05-21T11:12:25.782Z,52.1
2023-05-21T11:13:42.038Z,54.2
2023-05-21T11:14:57.277Z,52.9
2023-05-21T11:16:13.537Z,52.5
2023-05-21T11:17:29.759Z,52.7
2023-05-21T11:18:46.011Z,51.5
2023-05-21T11:20:02.249Z,51.5
2023-05-21T11:21:18.481Z,52
2023-05-21T11:22:34.727Z,53
2023-05-21T11:23:50.959Z,53.2
2023-05-21T11:25:07.210Z,50.4
2023-05-21T11:26:23.443Z,49.5
2023-05-21T11:27:39.692Z,51.1
2023-05-21T11:28:55.927Z,51.4
2023-05-21T11:30:12.172Z,50.5
2023-05-21T11:31:27.430Z,51.6
2023-05-21T11:32:43.673Z,50.3
2023-05-21T11:33:59.912Z,49.8
2023-05-21T11:35:16.147Z,50.9
2023-05-21T11:36:32.375Z,51.6
2023-05-21T11:37:48.621Z,51.5
2023-05-21T11:39:04.000Z,52.3
2023-05-21T11:40:21.096Z,51.5
2023-05-21T11:41:37.356Z,51.3
2023-05-21T11:42:53.586Z,49.5
2023-05-21T11:44:09.830Z,51.4
2023-05-21T11:45:26.062Z,49.9
2023-05-21T11:46:42.304Z,50.2
2023-05-21T11:47:57.562Z,49.4
2023-05-21T11:49:13.804Z,49.8
2023-05-21T11:50:30.042Z,51.8
2023-05-21T11:51:46.289Z,49.3
2023-05-21T11:53:02.516Z,50.1
2023-05-21T11:54:18.762Z,49.7
2023-05-21T11:55:35.017Z,49.8
2023-05-21T11:56:51.234Z,49.4
2023-05-21T11:58:07.493Z,49.4
2023-05-21T11:59:23.726Z,49.5
2023-05-21T12:00:39.961Z,50.8
2023-05-21T12:01:56.201Z,50
2023-05-21T12:03:12.000Z,51.8
2023-05-21T12:04:27.697Z,48.9
2023-05-21T12:05:43.932Z,50.6
2023-05-21T12:07:00.182Z,49.3
2023-05-21T12:08:16.427Z,49.1
2023-05-21T12:09:32.657Z,49.4
2023-05-21T12:10:48.897Z,51
2023-05-21T12:12:05.137Z,51.9
2023-05-21T12:13:21.393Z,53.2
2023-05-21T12:14:37.622Z,50.5
2023-05-21T12:15:53.864Z,50.6
2023-05-21T12:17:10.104Z,53.9
2023-05-21T12:18:26.341Z,51
2023-05-21T12:19:42.591Z,51.2
2023-05-21T12:20:57.846Z,51
2023-05-21T12:22:14.088Z,54.6
2023-05-21T12:23:30.320Z,53
2023-05-21T12:24:46.554Z,51.5
2023-05-21T12:26:02.812Z,52.4
2023-05-21T12:27:19.041Z,50.1
2023-05-21T12:28:35.288Z,50.8
2023-05-21T12:29:51.522Z,51.3
2023-05-21T12:31:07.771Z,50.9
2023-05-21T12:32:24.011Z,49.7
2023-05-21T12:33:40.239Z,49.3
2023-05-21T12:34:56.488Z,49.4
2023-05-21T12:36:12.723Z,50.4
2023-05-21T12:37:27.990Z,51
2023-05-21T12:38:44.211Z,50.8
2023-05-21T12:40:00.466Z,50.1
2023-05-21T12:41:16.707Z,51.6
2023-05-21T12:42:32.937Z,50.3
2023-05-21T12:43:49.000Z,52.7
2023-05-21T12:45:05.423Z,51.2
2023-05-21T12:46:21.657Z,50.2
2023-05-21T12:47:37.910Z,49.8
2023-05-21T12:48:54.150Z,52.5
2023-05-21T12:50:10.385Z,49.9
2023-05-21T12:51:26.620Z,50.1
2023-05-21T12:52:42.863Z,51.6
2023-05-21T12:53:58.112Z,55.1
2023-05-21T12:55:14.352Z,52.8
2023-05-21T12:56:30.597Z,50.4
2023-05-21T12:57:46.844Z,51.9
2023-05-21T12:59:03.088Z,49.6
2023-05-21T13:00:19.321Z,52.3
2023-05-21T13:01:35.553Z,52.3
2023-05-21T13:02:51.792Z,51.3
2023-05-21T13:04:08.031Z,50.5
2023-05-21T13:05:24.277Z,51.9
2023-05-21T13:06:40.516Z,51
2023-05-21T13:07:56.773Z,50.4
2023-05-21T13:09:13.000Z,48.6
2023-05-21T13:10:28.268Z,49
2023-05-21T13:11:44.502Z,49.9
2023-05-21T13:13:00.730Z,49.5
2023-05-21T13:14:16.989Z,50.1
2023-05-21T13:15:33.220Z,50
2023-05-21T13:16:49.462Z,50.2
2023-05-21T13:18:05.707Z,50.5
2023-05-21T13:19:21.933Z,50.5
2023-05-21T13:20:38.188Z,50
2023-05-21T13:21:54.411Z,50.5
2023-05-21T13:23:10.664Z,51
2023-05-21T13:24:26.899Z,51.9
2023-05-21T13:25:43.149Z,51.5
2023-05-21T13:26:58.403Z,50.6
2023-05-21T13:28:14.640Z,50
2023-05-21T13:29:30.892Z,50.4
2023-05-21T13:30:47.113Z,51.2
2023-05-21T13:32:03.365Z,50.9
2023-05-21T13:33:19.588Z,50.9
2023-05-21T13:34:35.830Z,51.6
2023-05-21T13:35:52.092Z,51.5
2023-05-21T13:37:08.319Z,52
2023-05-21T13:38:24.555Z,51.1
2023-05-21T13:39:40.801Z,51.6
2023-05-21T13:40:57.032Z,53.6
2023-05-21T13:42:13.273Z,51.8
2023-05-21T13:43:28.544Z,50.4
2023-05-21T13:44:44.770Z,49.6
2023-05-21T13:46:01.014Z,48.5
2023-05-21T13:47:17.245Z,48.7
2023-05-21T13:48:33.505Z,48.5
2023-05-21T13:49:49.732Z,48.6
2023-05-21T13:51:05.976Z,48.4
2023-05-21T13:52:22.212Z,48.1
2023-05-21T13:53:38.454Z,50
2023-05-21T13:54:54.702Z,48.3
2023-05-21T13:56:10.928Z,48.6
2023-05-21T13:57:27.146Z,49.5
2023-05-21T13:58:43.395Z,48.8
2023-05-21T13:59:58.639Z,49.4
2023-05-21T14:01:14.892Z,51
2023-05-21T14:02:31.160Z,51.1
2023-05-21T14:03:47.355Z,49.5
2023-05-21T14:05:03.600Z,49.2
2023-05-21T14:06:19.880Z,50.5
2023-05-21T14:07:36.125Z,50.9
2023-05-21T14:08:52.323Z,53.9
2023-05-21T14:10:08.561Z,50.7
2023-05-21T14:11:24.814Z,51.1
2023-05-21T14:12:41.036Z,49.8
2023-05-21T14:13:57.290Z,52.7
2023-05-21T14:15:13.524Z,50.3
2023-05-21T14:16:28.781Z,50.4
2023-05-21T14:17:45.031Z,51.1
2023-05-21T14:19:01.255Z,49.6
2023-05-21T14:20:17.491Z,50.2
2023-05-21T14:21:33.732Z,51.2
2023-05-21T14:22:49.975Z,52.8
2023-05-21T14:24:06.213Z,51.1
2023-05-21T14:25:22.459Z,51.6
2023-05-21T14:26:38.694Z,50.1
2023-05-21T14:27:54.942Z,50.4
2023-05-21T14:29:11.218Z,52.8
2023-05-21T14:30:27.433Z,50.9
2023-05-21T14:31:43.656Z,52.9
2023-05-21T14:32:58.951Z,49.7
2023-05-21T14:34:15.164Z,50.5
2023-05-21T14:35:31.404Z,50.5
2023-05-21T14:36:47.650Z,50.2
2023-05-21T14:38:03.875Z,50.7
2023-05-21T14:39:20.122Z,51
2023-05-21T14:40:36.364Z,52
2023-05-21T14:41:52.596Z,48.9
2023-05-21T14:43:08.851Z,51
2023-05-21T14:44:25.077Z,50
2023-05-21T14:45:41.322Z,49
2023-05-21T14:46:57.562Z,49.6
2023-05-21T14:48:13.799Z,48.7
2023-05-21T14:49:29.106Z,50.1
2023-05-21T14:50:45.290Z,50.6
2023-05-21T14:52:01.534Z,48.3
2023-05-21T14:53:17.772Z,50.1
2023-05-21T14:54:34.016Z,48.1
2023-05-21T14:55:50.289Z,48.9
2023-05-21T14:57:05.518Z,50.6
2023-05-21T14:58:21.808Z,49.5
2023-05-21T14:59:38.010Z,49.5
2023-05-21T15:00:54.279Z,50.3
2023-05-21T15:02:10.484Z,49.5
2023-05-21T15:03:26.713Z,50.1
2023-05-21T15:04:42.992Z,49.4
2023-05-21T15:05:59.193Z,51
2023-05-21T15:07:15.446Z,50.4
2023-05-21T15:08:31.685Z,52.2
2023-05-21T15:09:47.928Z,50.8
2023-05-21T15:11:04.201Z,51.1
2023-05-21T15:12:20.398Z,50.5
2023-05-21T15:13:35.653Z,50.5
2023-05-21T15:14:51.902Z,50.6
2023-05-21T15:16:08.167Z,50.3
2023-05-21T15:17:24.383Z,49.8
2023-05-21T15:18:40.624Z,50.7
2023-05-21T15:19:56.857Z,50.2
2023-05-21T15:21:13.105Z,49.8
2023-05-21T15:22:29.341Z,50.1
2023-05-21T15:23:45.570Z,50.7
2023-05-21T15:25:01.820Z,52.1
2023-05-21T15:26:18.051Z,51.5
2023-05-21T15:27:34.289Z,50.7
2023-05-21T15:28:50.537Z,51.7
2023-05-21T15:30:05.787Z,52.7
2023-05-21T15:31:22.040Z,51.6
2023-05-21T15:32:38.283Z,52.1
2023-05-21T15:33:54.507Z,52.5
2023-05-21T15:35:10.745Z,51.8
2023-05-21T15:36:27.000Z,50.4
2023-05-21T15:37:43.225Z,50.8
2023-05-21T15:38:59.511Z,51.3
2023-05-21T15:40:15.711Z,50.2
2023-05-21T15:41:31.953Z,52
2023-05-21T15:42:48.204Z,51.8
2023-05-21T15:44:04.427Z,50.5
2023-05-21T15:45:20.679Z,51.1
2023-05-21T15:46:35.937Z,50.9
2023-05-21T15:47:52.165Z,52
2023-05-21T15:49:08.404Z,50.9
2023-05-21T15:50:24.698Z,51.5
2023-05-21T15:51:40.893Z,51.1
2023-05-21T15:52:57.131Z,51.9
2023-05-21T15:54:13.374Z,52
2023-05-21T15:55:29.612Z,53
2023-05-21T15:56:45.887Z,54.1
2023-05-21T15:58:02.088Z,51.8
2023-05-21T15:59:18.326Z,51.9
2023-05-21T16:00:34.566Z,51.8
2023-05-21T16:01:50.811Z,52
2023-05-21T16:03:06.069Z,52.8
2023-05-21T16:04:22.302Z,52.8
2023-05-21T16:05:38.547Z,53.6
2023-05-21T16:06:54.784Z,53
2023-05-21T16:08:11.034Z,53.8
2023-05-21T16:09:27.266Z,54
2023-05-21T16:10:43.509Z,54.5
2023-05-21T16:11:59.759Z,53.7
2023-05-21T16:13:15.991Z,53.7
2023-05-21T16:14:32.230Z,54.1
2023-05-21T16:15:48.469Z,54.3
2023-05-21T16:17:04.703Z,55.5
2023-05-21T16:18:20.953Z,55.2
2023-05-21T16:19:36.200Z,55.8
2023-05-21T16:20:52.436Z,56.1
2023-05-21T16:22:08.697Z,55.5
2023-05-21T16:23:24.927Z,56.3
2023-05-21T16:24:41.174Z,56.8
2023-05-21T16:25:57.402Z,56.7
2023-05-21T16:27:13.653Z,56.5
2023-05-21T16:29:46.123Z,57.5
2023-05-21T16:31:02.375Z,56.4
2023-05-21T16:32:18.600Z,56.9
2023-05-21T16:33:34.846Z,56.2
2023-05-21T16:34:51.082Z,56.1
2023-05-21T16:36:06.336Z,56.1
2023-05-21T16:37:22.581Z,56.1
2023-05-21T16:38:38.834Z,55.1
2023-05-21T16:41:11.302Z,55.8
2023-05-21T16:42:27.538Z,55.7
2023-05-21T16:43:43.779Z,53.9
2023-05-21T16:45:00.020Z,53.5
2023-05-21T16:47:32.501Z,55.8
2023-05-21T16:48:47.760Z,52.3
2023-05-21T16:50:03.033Z,51.9
2023-05-21T16:51:18.331Z,53.1
2023-05-21T16:52:34.521Z,51.6
2023-05-21T16:53:50.763Z,52.5
2023-05-21T16:55:07.011Z,53.6
2023-05-21T16:56:23.274Z,55.7
2023-05-21T16:57:39.528Z,51.8
2023-05-21T16:58:55.717Z,52.1
2023-05-21T17:00:12.011Z,52.3
2023-05-21T17:01:28.207Z,53.8
2023-05-21T17:02:43.500Z,52.4
2023-05-21T17:03:58.723Z,53.3
2023-05-21T17:05:14.958Z,54.2